Aviation Digital Data Service (ADDS)

Output produced by METARs form (1111 UTC 24 April 2017)
found at http://www.aviationweather.gov/adds/metars/
 
DBBB 241100Z 23009KT 190V280 9999 SCT016 33/26 Q1011 NOSIG
TAF DBBB 240500Z 2406/2512 VRB03KT 9999 SCT012 
     BECMG 2410/2412 22010KT 
     TEMPO 2413/2419 BKN012 FEW023CB 
     PROB30 TS